createdAt,value
2023-04-20T04:49:47.118Z,95.08
2023-04-20T04:50:46.671Z,96.60
2023-04-20T04:52:50.664Z,95.84
2023-04-20T04:53:50.640Z,95.56
2023-04-20T04:55:54.645Z,95.56
2023-04-20T04:56:54.630Z,94.89
2023-04-20T04:58:58.629Z,95.08
2023-04-20T04:59:58.621Z,94.60
2023-04-20T05:02:02.651Z,94.13
2023-04-20T05:03:02.691Z,94.60
2023-04-20T05:05:09.452Z,94.70
2023-04-20T05:06:06.562Z,94.79
2023-04-20T05:07:59.493Z,95.17
2023-04-20T05:08:59.458Z,95.36
2023-04-20T05:11:03.461Z,95.17
2023-04-20T05:12:03.455Z,94.79
2023-04-20T05:14:07.431Z,94.70
2023-04-20T05:15:07.428Z,94.42
2023-04-20T05:17:11.457Z,94.98
2023-04-20T05:18:11.399Z,94.89
2023-04-20T05:20:15.368Z,95.17
2023-04-20T05:21:15.372Z,95.36
2023-04-20T05:23:19.376Z,94.98
2023-04-20T05:24:19.348Z,95.08
2023-04-20T05:26:23.333Z,93.94
2023-04-20T05:27:23.316Z,94.32
2023-04-20T05:29:27.321Z,93.94
2023-04-20T05:30:27.305Z,93.84
2023-04-20T05:32:31.828Z,94.42
2023-04-20T05:33:31.294Z,94.51
2023-04-20T05:35:35.284Z,94.22
2023-04-20T05:36:35.280Z,94.51
2023-04-20T05:38:28.197Z,93.94
2023-04-20T05:39:28.172Z,94.13
2023-04-20T05:41:32.174Z,93.84
2023-04-20T05:42:32.146Z,93.84
2023-04-20T05:44:36.205Z,94.22
2023-04-20T05:45:36.161Z,93.75
2023-04-20T05:47:40.152Z,92.89
2023-04-20T05:48:40.097Z,93.18
2023-04-20T05:50:33.558Z,92.99
2023-04-20T05:51:57.545Z,92.70
2023-04-20T05:52:33.517Z,92.80
2023-04-20T05:53:40.036Z,93.08
2023-04-20T05:54:33.506Z,92.89
2023-04-20T05:55:48.028Z,92.61
2023-04-20T05:56:33.489Z,93.46
2023-04-20T05:57:48.035Z,93.18
2023-04-20T05:59:45.199Z,93.18
2023-04-20T06:00:45.158Z,92.99
2023-04-20T06:02:49.276Z,93.46
2023-04-20T06:03:49.380Z,93.08
2023-04-20T06:05:53.136Z,92.99
2023-04-20T06:06:53.125Z,92.89
2023-04-20T06:08:57.132Z,93.04
2023-04-20T06:09:57.109Z,92.94
2023-04-20T06:11:50.213Z,92.56
2023-04-20T06:12:50.276Z,91.89
2023-04-20T06:14:54.201Z,92.41
2023-04-20T06:15:54.362Z,92.32
2023-04-20T06:17:47.175Z,91.75
2023-04-20T06:18:47.116Z,91.85
2023-04-20T06:20:51.078Z,91.94
2023-04-20T06:21:51.086Z,92.80
2023-04-20T06:23:55.101Z,92.51
2023-04-20T06:24:55.095Z,92.22
2023-04-20T06:26:59.050Z,92.61
2023-04-20T06:27:59.044Z,92.65
2023-04-20T06:30:03.052Z,92.27
2023-04-20T06:31:03.086Z,91.99
2023-04-20T06:33:07.088Z,91.51
2023-04-20T06:34:07.009Z,92.18
2023-04-20T06:36:11.000Z,91.66
2023-04-20T06:37:10.982Z,91.80
2023-04-20T06:39:15.083Z,91.89
2023-04-20T06:40:16.344Z,92.18
2023-04-20T06:42:18.972Z,91.89
2023-04-20T06:43:18.938Z,91.61
2023-04-20T06:45:22.946Z,91.61
2023-04-20T06:46:22.986Z,91.80
2023-04-20T06:48:30.816Z,91.61
2023-04-20T06:49:16.004Z,91.80
2023-04-20T06:51:19.832Z,91.42
2023-04-20T06:52:19.805Z,91.13
2023-04-20T06:54:24.811Z,91.61
2023-04-20T06:55:24.811Z,91.51
2023-04-20T06:57:28.793Z,91.61
2023-04-20T06:58:28.915Z,91.80
2023-04-20T07:00:32.773Z,91.42
2023-04-20T07:01:32.823Z,91.42
2023-04-20T07:03:36.911Z,91.89
2023-04-20T07:04:36.810Z,91.61
2023-04-20T07:06:40.690Z,91.51
2023-04-20T07:07:40.687Z,91.61
2023-04-20T07:09:44.719Z,91.32
2023-04-20T07:10:44.659Z,91.51
2023-04-20T07:12:48.651Z,91.22
2023-04-20T07:13:48.641Z,90.84
2023-04-20T07:15:52.740Z,90.28
2023-04-20T07:16:52.705Z,90.08
2023-04-20T07:18:56.663Z,90.99
2023-04-20T07:19:56.641Z,93.37
2023-04-20T07:22:00.650Z,95.03
2023-04-20T07:23:00.654Z,95.89
2023-04-20T07:25:04.646Z,94.60
2023-04-20T07:26:04.624Z,92.79
2023-04-20T07:27:57.568Z,90.31
2023-04-20T07:28:57.531Z,91.94
2023-04-20T07:31:01.631Z,91.13
2023-04-20T07:32:01.539Z,90.17
2023-04-20T07:34:05.522Z,85.78
2023-04-20T07:35:05.477Z,85.02
2023-04-20T07:37:09.479Z,83.02
2023-04-20T07:38:09.477Z,82.41
2023-04-20T07:40:13.508Z,82.79
2023-04-20T07:41:13.483Z,82.60
2023-04-20T07:43:17.445Z,83.61
2023-04-20T07:44:17.455Z,84.08
2023-04-20T07:46:21.516Z,84.46
2023-04-20T07:47:21.491Z,85.03
2023-04-20T07:49:25.428Z,85.32
2023-04-20T07:50:25.466Z,86.36
2023-04-20T07:52:29.419Z,88.27
2023-04-20T07:53:29.393Z,88.93
2023-04-20T07:55:33.400Z,89.17
2023-04-20T07:56:33.397Z,88.60
2023-04-20T07:58:26.303Z,88.55
2023-04-20T07:59:26.314Z,86.45
2023-04-20T08:01:31.411Z,82.92
2023-04-20T08:02:31.444Z,82.79
2023-04-20T08:04:35.774Z,81.46
2023-04-20T08:05:35.328Z,82.60
2023-04-20T08:07:39.337Z,82.69
2023-04-20T08:08:39.317Z,82.69
2023-04-20T08:10:43.306Z,83.22
2023-04-20T08:11:43.274Z,83.32
2023-04-20T08:13:47.348Z,83.61
2023-04-20T08:14:47.256Z,83.07
2023-04-20T08:16:51.463Z,82.84
2023-04-20T08:17:51.261Z,83.32
2023-04-20T08:19:55.261Z,83.22
2023-04-20T08:20:55.248Z,83.80
2023-04-20T08:22:59.544Z,83.80
2023-04-20T08:23:59.232Z,83.89
2023-04-20T08:26:03.244Z,83.03
2023-04-20T08:27:03.495Z,83.98
2023-04-20T08:29:07.231Z,83.80
2023-04-20T08:30:07.194Z,83.51
2023-04-20T08:32:11.215Z,83.51
2023-04-20T08:33:11.207Z,83.41
2023-04-20T08:35:15.193Z,83.22
2023-04-20T08:36:15.172Z,82.65
2023-04-20T08:38:08.109Z,83.03
2023-04-20T08:39:08.112Z,82.93
2023-04-20T08:41:12.125Z,82.75
2023-04-20T08:42:12.104Z,84.75
2023-04-20T08:44:16.272Z,87.55
2023-04-20T08:45:16.073Z,87.17
2023-04-20T08:47:20.628Z,88.17
2023-04-20T08:48:20.535Z,86.74
2023-04-20T08:49:20.542Z,84.45
2023-04-20T08:50:20.549Z,82.35
2023-04-20T08:51:20.536Z,81.12
2023-04-20T08:52:20.523Z,80.83
2023-04-20T08:53:20.533Z,82.64
2023-04-20T08:54:21.732Z,84.92
2023-04-20T08:55:20.527Z,86.36
2023-04-20T08:56:20.507Z,84.26
2023-04-20T08:57:20.519Z,82.45
2023-04-20T08:58:20.499Z,81.30
2023-04-20T08:59:20.508Z,81.97
2023-04-20T09:00:20.494Z,83.02
2023-04-20T09:01:28.731Z,84.64
2023-04-20T09:02:20.553Z,85.88
2023-04-20T09:03:20.796Z,86.45
2023-04-20T09:04:20.967Z,85.60
2023-04-20T09:05:20.499Z,84.11
2023-04-20T09:06:22.240Z,82.92
2023-04-20T09:07:20.473Z,82.17
2023-04-20T09:08:20.457Z,81.97
2023-04-20T09:09:20.453Z,82.73
2023-04-20T09:10:20.455Z,82.79
2023-04-20T09:11:20.508Z,83.17
2023-04-20T09:12:22.551Z,83.84
2023-04-20T09:13:20.476Z,84.03
2023-04-20T09:14:20.614Z,84.69
2023-04-20T09:15:20.442Z,85.36
2023-04-20T09:16:20.453Z,85.27
2023-04-20T09:17:20.437Z,85.84
2023-04-20T09:18:20.455Z,86.03
2023-04-20T09:19:20.412Z,86.51
2023-04-20T09:20:20.431Z,87.07
2023-04-20T09:21:20.414Z,87.17
2023-04-20T09:22:20.402Z,86.69
2023-04-20T09:23:20.397Z,87.41
2023-04-20T09:24:20.398Z,87.51
2023-04-20T09:25:20.395Z,87.23
2023-04-20T09:26:20.403Z,87.70
2023-04-20T09:27:20.380Z,87.70
2023-04-20T09:28:20.402Z,87.60
2023-04-20T09:29:20.395Z,87.79
2023-04-20T09:30:20.374Z,88.27
2023-04-20T09:31:20.388Z,88.56
2023-04-20T09:32:20.464Z,88.46
2023-04-20T09:33:20.390Z,88.65
2023-04-20T09:34:20.377Z,88.65
2023-04-20T09:35:20.357Z,88.08
2023-04-20T09:36:20.369Z,88.37
2023-04-20T09:37:20.360Z,88.46
2023-04-20T09:38:20.330Z,89.22
2023-04-20T09:39:20.361Z,88.75
2023-04-20T09:40:20.333Z,89.22
2023-04-20T09:41:20.338Z,89.03
2023-04-20T09:42:20.350Z,88.46
2023-04-20T09:43:20.333Z,88.46
2023-04-20T09:44:20.360Z,88.27
2023-04-20T09:45:20.331Z,87.98
2023-04-20T09:46:20.357Z,88.27
2023-04-20T09:47:20.382Z,88.18
2023-04-20T09:48:20.301Z,88.08
2023-04-20T09:49:20.346Z,88.18
2023-04-20T09:50:29.193Z,88.37
2023-04-20T09:51:20.292Z,88.27
2023-04-20T09:52:20.296Z,87.98
2023-04-20T09:53:20.299Z,88.37
2023-04-20T09:54:20.483Z,88.18
2023-04-20T09:55:20.266Z,88.18
2023-04-20T09:56:20.275Z,88.27
2023-04-20T09:57:20.257Z,87.60
2023-04-20T09:58:20.301Z,87.46
2023-04-20T09:59:20.251Z,87.55
2023-04-20T10:00:20.312Z,87.46
2023-04-20T10:01:20.300Z,87.17
2023-04-20T10:02:20.375Z,87.07
2023-04-20T10:03:20.610Z,86.88
2023-04-20T10:04:20.624Z,86.22
2023-04-20T10:05:20.255Z,86.41
2023-04-20T10:06:20.219Z,86.41
2023-04-20T10:07:20.243Z,86.41
2023-04-20T10:08:20.290Z,86.69
2023-04-20T10:09:20.255Z,86.88
2023-04-20T10:10:20.433Z,86.22
2023-04-20T10:11:20.218Z,86.41
2023-04-20T10:12:20.213Z,86.79
2023-04-20T10:13:20.222Z,86.41
2023-04-20T10:14:20.507Z,86.41
2023-04-20T10:15:20.206Z,86.60
2023-04-20T10:16:20.257Z,86.69
2023-04-20T10:17:20.462Z,86.60
2023-04-20T10:18:20.520Z,87.36
2023-04-20T10:19:20.200Z,87.17
2023-04-20T10:20:20.319Z,87.17
2023-04-20T10:21:20.181Z,87.17
2023-04-20T10:22:20.197Z,86.88
2023-04-20T10:23:20.268Z,87.17
2023-04-20T10:24:20.577Z,87.27
2023-04-20T10:25:20.185Z,86.60
2023-04-20T10:26:20.165Z,86.79
2023-04-20T10:27:20.174Z,86.51
2023-04-20T10:28:20.178Z,86.41
2023-04-20T10:29:20.159Z,86.03
2023-04-20T10:30:20.165Z,86.41
2023-04-20T10:31:20.194Z,86.41
2023-04-20T10:32:20.152Z,86.41
2023-04-20T10:33:20.238Z,86.12
2023-04-20T10:34:20.164Z,86.22
2023-04-20T10:35:20.153Z,86.41
2023-04-20T10:36:20.173Z,86.69
2023-04-20T10:37:21.047Z,86.51
2023-04-20T10:38:20.161Z,87.07
2023-04-20T10:39:20.160Z,87.07
2023-04-20T10:40:20.122Z,87.21
2023-04-20T10:41:20.119Z,87.02
2023-04-20T10:42:20.117Z,86.93
2023-04-20T10:43:20.208Z,86.65
2023-04-20T10:44:20.189Z,86.65
2023-04-20T10:45:20.211Z,86.45
2023-04-20T10:46:20.220Z,86.74
2023-04-20T10:47:20.203Z,86.65
2023-04-20T10:48:20.150Z,86.45
2023-04-20T10:49:20.274Z,85.78
2023-04-20T10:50:20.093Z,86.07
2023-04-20T10:51:20.136Z,85.69
2023-04-20T10:52:20.181Z,85.54
2023-04-20T10:53:20.112Z,85.83
2023-04-20T10:54:20.141Z,85.25
2023-04-20T10:55:20.135Z,84.64
2023-04-20T10:56:20.096Z,84.16
2023-04-20T10:57:20.152Z,83.83
2023-04-20T10:58:20.114Z,83.59
2023-04-20T10:59:20.158Z,83.50
2023-04-20T11:00:20.069Z,83.92
2023-04-20T11:01:20.087Z,84.20
2023-04-20T11:02:20.197Z,84.69
2023-04-20T11:03:20.142Z,84.26
2023-04-20T11:04:20.069Z,83.88
2023-04-20T11:05:20.293Z,83.88
2023-04-20T11:06:20.163Z,83.59
2023-04-20T11:07:20.123Z,83.40
2023-04-20T11:08:20.078Z,83.44
2023-04-20T11:09:20.254Z,83.50
2023-04-20T11:10:20.072Z,83.64
2023-04-20T11:11:20.117Z,83.54
2023-04-20T11:12:20.047Z,83.73
2023-04-20T11:13:20.082Z,83.54
2023-04-20T11:14:20.052Z,82.78
2023-04-20T11:15:20.072Z,83.44
2023-04-20T11:16:20.081Z,83.54
2023-04-20T11:17:20.119Z,83.25
2023-04-20T11:18:20.074Z,83.54
2023-04-20T11:19:20.056Z,83.44
2023-04-20T11:20:20.033Z,83.92
2023-04-20T11:21:20.016Z,84.30
2023-04-20T11:22:20.018Z,84.11
2023-04-20T11:23:20.020Z,84.20
2023-04-20T11:24:20.024Z,83.92
2023-04-20T11:25:20.023Z,84.11
2023-04-20T11:26:20.044Z,83.83
2023-04-20T11:27:20.028Z,84.11
2023-04-20T11:28:20.030Z,84.01
2023-04-20T11:29:20.274Z,84.11
2023-04-20T11:30:19.982Z,84.01
2023-04-20T11:31:20.121Z,84.11
2023-04-20T11:32:20.084Z,84.69
2023-04-20T11:33:20.128Z,84.69
2023-04-20T11:34:20.004Z,84.69
2023-04-20T11:35:19.979Z,84.97
2023-04-20T11:36:19.996Z,85.16
2023-04-20T11:37:20.275Z,84.69
2023-04-20T11:38:19.985Z,84.49
2023-04-20T11:39:19.992Z,84.20
2023-04-20T11:40:19.973Z,84.11
2023-04-20T11:41:20.030Z,83.83
2023-04-20T11:42:19.973Z,83.92
2023-04-20T11:43:19.968Z,83.64
2023-04-20T11:44:19.946Z,83.73
2023-04-20T11:45:19.942Z,83.64
2023-04-20T11:46:19.966Z,84.01
2023-04-20T11:47:20.063Z,84.11
2023-04-20T11:48:19.950Z,84.11
2023-04-20T11:49:20.016Z,84.20
2023-04-20T11:50:19.947Z,84.69
2023-04-20T11:51:19.925Z,84.59
2023-04-20T11:52:19.916Z,84.30
2023-04-20T11:53:19.923Z,84.78
2023-04-20T11:54:19.979Z,84.30
2023-04-20T11:55:19.916Z,84.20
2023-04-20T11:56:19.949Z,83.83
2023-04-20T11:57:19.952Z,83.83
2023-04-20T11:58:19.927Z,83.83
2023-04-20T11:59:20.609Z,83.48
2023-04-20T12:00:19.937Z,83.54
2023-04-20T12:01:19.925Z,83.67
2023-04-20T12:02:19.942Z,83.67
2023-04-20T12:03:20.002Z,83.67
2023-04-20T12:04:20.318Z,83.67
2023-04-20T12:05:19.953Z,83.87
2023-04-20T12:06:19.929Z,83.67
2023-04-20T12:07:19.885Z,83.58
2023-04-20T12:08:19.913Z,83.58
2023-04-20T12:09:20.147Z,83.87
2023-04-20T12:10:19.903Z,83.29
2023-04-20T12:11:19.916Z,82.82
2023-04-20T12:12:19.880Z,82.82
2023-04-20T12:13:19.862Z,83.29
2023-04-20T12:14:19.923Z,83.67
2023-04-20T12:15:19.862Z,83.77
2023-04-20T12:16:19.884Z,83.48
2023-04-20T12:17:19.912Z,82.82
2023-04-20T12:18:19.910Z,83.29
2023-04-20T12:19:20.129Z,83.05
2023-04-20T12:20:19.882Z,83.43
2023-04-20T12:21:19.848Z,82.86
2023-04-20T12:22:19.868Z,83.01
2023-04-20T12:23:19.855Z,83.11
2023-04-20T12:24:19.838Z,83.43
2023-04-20T12:25:19.964Z,83.43
2023-04-20T12:26:19.860Z,83.14
2023-04-20T12:27:19.827Z,83.24
2023-04-20T12:28:19.845Z,83.72
2023-04-20T12:29:20.230Z,83.53
2023-04-20T12:30:19.869Z,83.05
2023-04-20T12:31:19.902Z,82.57
2023-04-20T12:32:19.814Z,82.48
2023-04-20T12:33:19.835Z,82.19
2023-04-20T12:34:19.987Z,82.09
2023-04-20T12:35:19.821Z,82.00
2023-04-20T12:36:19.870Z,82.09
2023-04-20T12:37:19.807Z,82.00
2023-04-20T12:38:19.816Z,81.90
2023-04-20T12:39:19.808Z,82.29
2023-04-20T12:40:19.823Z,81.90
2023-04-20T12:41:19.985Z,82.00
2023-04-20T12:42:19.857Z,82.19
2023-04-20T12:43:19.848Z,82.67
2023-04-20T12:44:20.022Z,82.29
2023-04-20T12:45:19.828Z,82.48
2023-04-20T12:46:19.888Z,82.38
2023-04-20T12:47:19.838Z,82.48
2023-04-20T12:48:19.868Z,82.86
2023-04-20T12:49:20.050Z,82.57
2023-04-20T12:50:19.865Z,82.48
2023-04-20T12:51:19.821Z,82.29
2023-04-20T12:52:19.825Z,82.48
2023-04-20T12:53:19.836Z,82.57
2023-04-20T12:54:20.043Z,82.76
2023-04-20T12:55:19.813Z,82.95
2023-04-20T12:56:19.792Z,82.57
2023-04-20T12:57:19.861Z,82.57
2023-04-20T12:58:19.809Z,82.48
2023-04-20T12:59:19.816Z,82.29
2023-04-20T13:00:19.791Z,81.90
2023-04-20T13:01:19.885Z,81.52
2023-04-20T13:02:19.954Z,81.47
2023-04-20T13:03:20.047Z,81.14
2023-04-20T13:04:20.031Z,80.61
2023-04-20T13:05:19.791Z,80.57
2023-04-20T13:06:19.786Z,80.61
2023-04-20T13:07:19.777Z,80.80
2023-04-20T13:08:19.730Z,80.70
2023-04-20T13:09:19.800Z,80.99
2023-04-20T13:10:19.798Z,80.80
2023-04-20T13:11:19.725Z,80.80
2023-04-20T13:12:19.784Z,80.61
2023-04-20T13:13:19.723Z,80.41
2023-04-20T13:14:20.130Z,80.51
2023-04-20T13:15:32.071Z,79.75
2023-04-20T13:16:19.856Z,79.94
2023-04-20T13:17:19.805Z,79.75
2023-04-20T13:18:19.723Z,79.46
2023-04-20T13:19:19.718Z,79.46
2023-04-20T13:20:19.779Z,79.56
2023-04-20T13:21:19.716Z,79.36
2023-04-20T13:22:19.745Z,79.65
2023-04-20T13:23:19.698Z,79.17
2023-04-20T13:24:19.817Z,79.27
2023-04-20T13:25:19.708Z,79.36
2023-04-20T13:26:19.753Z,79.27
2023-04-20T13:27:19.775Z,78.99
2023-04-20T13:28:19.748Z,78.51
2023-04-20T13:29:19.980Z,78.36
2023-04-20T13:30:20.058Z,78.51
2023-04-20T13:31:19.705Z,78.16
2023-04-20T13:32:19.800Z,78.07
2023-04-20T13:33:19.684Z,78.07
2023-04-20T13:34:19.896Z,78.16
2023-04-20T13:35:19.680Z,78.16
2023-04-20T13:36:19.694Z,78.07
2023-04-20T13:37:19.738Z,78.45
2023-04-20T13:38:19.671Z,78.45
2023-04-20T13:39:19.825Z,77.78
2023-04-20T13:40:19.692Z,78.36
2023-04-20T13:41:19.691Z,78.26
2023-04-20T13:42:19.708Z,78.45
2023-04-20T13:43:21.538Z,78.16
2023-04-20T13:44:19.960Z,78.45
2023-04-20T13:45:19.665Z,78.36
2023-04-20T13:46:19.682Z,78.07
2023-04-20T13:47:19.689Z,78.45
2023-04-20T13:48:19.794Z,78.45
2023-04-20T13:49:19.661Z,78.74
2023-04-20T13:50:19.777Z,79.12
2023-04-20T13:51:19.666Z,78.93
2023-04-20T13:52:19.663Z,78.74
2023-04-20T13:53:19.676Z,78.93
2023-04-20T13:54:19.815Z,78.64
2023-04-20T13:55:19.705Z,78.55
2023-04-20T13:56:19.657Z,78.07
2023-04-20T13:57:19.638Z,77.78
2023-04-20T13:58:19.661Z,77.21
2023-04-20T13:59:19.632Z,77.01
2023-04-20T14:00:19.652Z,76.16
2023-04-20T14:01:19.677Z,76.25
2023-04-20T14:02:19.804Z,76.25
2023-04-20T14:03:19.761Z,76.06
2023-04-20T14:04:20.045Z,76.20
2023-04-20T14:05:19.646Z,75.52
2023-04-20T14:06:19.680Z,75.34
2023-04-20T14:07:19.672Z,75.52
2023-04-20T14:08:19.680Z,75.14
2023-04-20T14:09:19.624Z,74.76
2023-04-20T14:10:19.633Z,74.48
2023-04-20T14:11:19.676Z,74.76
2023-04-20T14:12:19.637Z,74.38
2023-04-20T14:13:19.669Z,74.85
2023-04-20T14:14:19.747Z,74.85
2023-04-20T14:15:19.642Z,75.34
2023-04-20T14:16:19.674Z,75.24
2023-04-20T14:17:19.732Z,75.62
2023-04-20T14:18:19.633Z,75.62
2023-04-20T14:19:19.615Z,75.05
2023-04-20T14:20:19.673Z,75.05
2023-04-20T14:21:19.611Z,75.24
2023-04-20T14:22:19.591Z,75.24
2023-04-20T14:23:19.638Z,75.05
2023-04-20T14:24:19.796Z,74.85
2023-04-20T14:25:19.601Z,74.85
2023-04-20T14:26:19.610Z,74.76
2023-04-20T14:27:19.592Z,74.85
2023-04-20T14:28:19.635Z,74.19
2023-04-20T14:29:19.597Z,74.28
2023-04-20T14:30:19.595Z,74.48
2023-04-20T14:31:19.617Z,74.28
2023-04-20T14:32:19.651Z,74.85
2023-04-20T14:33:19.570Z,74.85
2023-04-20T14:34:19.827Z,74.85
2023-04-20T14:35:19.597Z,74.95
2023-04-20T14:36:19.575Z,74.09
2023-04-20T14:37:19.578Z,74.28
2023-04-20T14:38:19.608Z,74.19
2023-04-20T14:39:19.584Z,74.48
2023-04-20T14:40:19.572Z,74.38
2023-04-20T14:41:19.576Z,74.38
2023-04-20T14:42:19.581Z,74.38
2023-04-20T14:43:19.570Z,74.38
2023-04-20T14:44:19.847Z,74.09
2023-04-20T14:45:19.573Z,74.38
2023-04-20T14:46:19.609Z,74.66
2023-04-20T14:47:19.595Z,74.48
2023-04-20T14:48:19.562Z,74.19
2023-04-20T14:49:19.557Z,74.38
2023-04-20T14:50:19.568Z,74.38
2023-04-20T14:51:19.542Z,74.48
2023-04-20T14:52:19.545Z,74.19
2023-04-20T14:53:19.557Z,73.99
2023-04-20T14:54:19.922Z,74.09
2023-04-20T14:55:19.582Z,74.09
2023-04-20T14:56:19.547Z,73.80
2023-04-20T14:57:19.544Z,73.61
2023-04-20T14:58:19.532Z,73.90
2023-04-20T14:59:19.525Z,73.94
2023-04-20T15:00:19.528Z,73.36
2023-04-20T15:01:19.583Z,72.69
2023-04-20T15:02:19.671Z,72.69
2023-04-20T15:03:19.879Z,72.60
2023-04-20T15:04:19.860Z,72.31
2023-04-20T15:05:19.588Z,71.93
2023-04-20T15:06:19.520Z,71.73
2023-04-20T15:07:19.653Z,71.64
2023-04-20T15:08:19.580Z,71.45
2023-04-20T15:09:19.504Z,71.55
2023-04-20T15:10:19.509Z,71.16
2023-04-20T15:11:19.624Z,71.26
2023-04-20T15:12:19.634Z,71.26
2023-04-20T15:13:19.500Z,70.97
2023-04-20T15:14:19.632Z,71.16
2023-04-20T15:15:19.507Z,71.55
2023-04-20T15:16:19.542Z,71.55
2023-04-20T15:17:19.521Z,71.36
2023-04-20T15:18:19.488Z,71.45
2023-04-20T15:19:19.493Z,71.55
2023-04-20T15:20:19.496Z,71.45
2023-04-20T15:21:19.485Z,71.16
2023-04-20T15:22:19.540Z,71.16
2023-04-20T15:23:19.509Z,71.16
2023-04-20T15:24:19.688Z,71.26
2023-04-20T15:25:19.485Z,71.45
2023-04-20T15:26:19.481Z,71.83
2023-04-20T15:27:19.483Z,71.36
2023-04-20T15:28:19.509Z,71.64
2023-04-20T15:29:19.480Z,71.73
2023-04-20T15:30:19.470Z,71.26
2023-04-20T15:31:19.509Z,71.36
2023-04-20T15:32:19.531Z,71.36
2023-04-20T15:33:19.503Z,71.16
2023-04-20T15:34:19.731Z,70.97
2023-04-20T15:35:19.474Z,70.78
2023-04-20T15:36:19.484Z,70.50
2023-04-20T15:37:19.482Z,70.50
2023-04-20T15:38:19.454Z,69.82
2023-04-20T15:39:19.484Z,69.35
2023-04-20T15:40:19.450Z,69.82
2023-04-20T15:41:19.448Z,69.73
2023-04-20T15:42:19.449Z,70.01
2023-04-20T15:43:19.459Z,70.01
2023-04-20T15:44:19.623Z,69.82
2023-04-20T15:45:19.474Z,69.35
2023-04-20T15:46:19.498Z,69.64
2023-04-20T15:47:19.448Z,69.06
2023-04-20T15:48:19.481Z,69.73
2023-04-20T15:49:19.459Z,69.92
2023-04-20T15:50:19.460Z,69.35
2023-04-20T15:51:19.450Z,69.64
2023-04-20T15:52:19.422Z,69.64
2023-04-20T15:53:19.440Z,70.11
2023-04-20T15:54:19.695Z,70.01
2023-04-20T15:55:19.448Z,70.50
2023-04-20T15:56:19.446Z,70.30
2023-04-20T15:57:19.455Z,70.21
2023-04-20T15:58:19.458Z,70.40
2023-04-20T15:59:19.441Z,70.21
2023-04-20T16:00:19.424Z,70.40
2023-04-20T16:01:19.488Z,70.78
2023-04-20T16:02:19.505Z,70.59
2023-04-20T16:03:19.577Z,70.21
2023-04-20T16:04:19.738Z,70.59
2023-04-20T16:05:19.426Z,70.40
2023-04-20T16:06:19.413Z,70.21
2023-04-20T16:07:19.409Z,70.30
2023-04-20T16:08:19.408Z,70.50
2023-04-20T16:09:20.761Z,70.68
2023-04-20T16:10:19.426Z,69.82
2023-04-20T16:11:19.413Z,69.92
2023-04-20T16:12:19.406Z,69.73
2023-04-20T16:13:19.453Z,70.59
2023-04-20T16:14:19.569Z,70.78
2023-04-20T16:15:19.401Z,70.59
2023-04-20T16:16:19.432Z,70.34
2023-04-20T16:17:19.399Z,70.50
2023-04-20T16:18:19.455Z,70.68
2023-04-20T16:19:19.380Z,70.87
2023-04-20T16:20:19.403Z,70.50
2023-04-20T16:21:19.450Z,71.16
2023-04-20T16:22:19.415Z,71.36
2023-04-20T16:23:19.393Z,71.45
2023-04-20T16:24:19.588Z,71.45
2023-04-20T16:25:19.398Z,71.93
2023-04-20T16:26:19.496Z,71.73
2023-04-20T16:27:19.414Z,71.55
2023-04-20T16:28:19.375Z,72.02
2023-04-20T16:29:19.380Z,71.93
2023-04-20T16:30:19.379Z,72.12
2023-04-20T16:31:19.488Z,72.50
2023-04-20T16:32:19.350Z,72.50
2023-04-20T16:33:19.380Z,72.41
2023-04-20T16:34:19.650Z,72.12
2023-04-20T16:35:19.356Z,72.88
2023-04-20T16:36:19.403Z,72.60
2023-04-20T16:37:19.402Z,72.88
2023-04-20T16:38:19.379Z,72.98
2023-04-20T16:39:19.360Z,72.79
2023-04-20T16:40:19.347Z,72.88
2023-04-20T16:41:19.361Z,72.88
2023-04-20T16:42:19.361Z,72.69
2023-04-20T16:43:19.458Z,72.69
2023-04-20T16:44:19.463Z,72.79
2023-04-20T16:45:19.353Z,72.98
2023-04-20T16:46:19.426Z,72.60
2023-04-20T16:47:19.365Z,73.02
2023-04-20T16:48:19.350Z,72.98
2023-04-20T16:49:19.365Z,72.88
2023-04-20T16:50:19.587Z,72.69
2023-04-20T16:51:19.353Z,72.12
2023-04-20T16:52:19.331Z,71.93
2023-04-20T16:53:19.336Z,71.87
2023-04-20T16:54:19.554Z,71.93
2023-04-20T16:55:19.329Z,72.06
2023-04-20T16:56:19.362Z,71.93
2023-04-20T16:57:19.325Z,71.97
2023-04-20T16:58:19.435Z,72.12
2023-04-20T16:59:19.347Z,72.44
2023-04-20T17:00:19.318Z,72.41
2023-04-20T17:01:19.365Z,72.88
2023-04-20T17:02:19.417Z,72.88
2023-04-20T17:03:19.510Z,72.79
2023-04-20T17:04:19.726Z,72.60
2023-04-20T17:05:19.321Z,72.88
2023-04-20T17:06:19.313Z,72.98
2023-04-20T17:07:19.322Z,72.79
2023-04-20T17:08:19.348Z,73.17
2023-04-20T17:09:19.305Z,72.88
2023-04-20T17:10:19.300Z,72.88
2023-04-20T17:11:19.337Z,72.79
2023-04-20T17:12:19.300Z,72.88
2023-04-20T17:13:19.296Z,72.50
2023-04-20T17:14:19.466Z,72.60
2023-04-20T17:15:19.301Z,73.08
2023-04-20T17:16:19.387Z,72.79
2023-04-20T17:17:19.322Z,74.13
2023-04-20T17:18:19.282Z,74.04
2023-04-20T17:19:19.293Z,72.79
2023-04-20T17:20:19.280Z,72.79
2023-04-20T17:21:19.281Z,72.60
2023-04-20T17:22:19.284Z,72.69
2023-04-20T17:23:19.358Z,72.50
2023-04-20T17:24:19.590Z,72.41
2023-04-20T17:25:19.430Z,72.50
2023-04-20T17:26:19.309Z,72.41
2023-04-20T17:27:19.267Z,72.50
2023-04-20T17:28:19.288Z,72.41
2023-04-20T17:29:19.277Z,72.22
2023-04-20T17:30:19.273Z,72.41
2023-04-20T17:31:19.277Z,72.50
2023-04-20T17:32:19.331Z,72.31
2023-04-20T17:33:19.257Z,73.46
2023-04-20T17:34:19.418Z,74.22
2023-04-20T17:35:19.253Z,73.94
2023-04-20T17:36:19.257Z,73.65
2023-04-20T17:37:19.240Z,74.61
2023-04-20T17:38:19.275Z,74.74
2023-04-20T17:39:19.292Z,74.36
2023-04-20T17:40:19.236Z,74.16
2023-04-20T17:41:19.262Z,74.07
2023-04-20T17:42:19.231Z,73.97
2023-04-20T17:43:19.224Z,74.36
2023-04-20T17:44:19.502Z,74.16
2023-04-20T17:45:19.229Z,73.63
2023-04-20T17:46:19.297Z,72.86
2023-04-20T17:47:19.332Z,73.24
2023-04-20T17:48:19.265Z,73.72
2023-04-20T17:49:19.261Z,72.86
2023-04-20T17:50:19.219Z,72.77
2023-04-20T17:51:19.222Z,72.58
2023-04-20T17:52:19.220Z,72.09
2023-04-20T17:53:19.235Z,72.00
2023-04-20T17:54:19.371Z,72.48
2023-04-20T17:55:19.229Z,72.09
2023-04-20T17:56:19.220Z,72.48
2023-04-20T17:57:19.210Z,72.48
2023-04-20T17:58:19.213Z,72.00
2023-04-20T17:59:19.214Z,70.95
2023-04-20T18:00:19.199Z,70.24
2023-04-20T18:01:19.229Z,70.62
2023-04-20T18:02:19.283Z,70.53
2023-04-20T18:03:19.349Z,71.39
2023-04-20T18:04:19.567Z,71.48
2023-04-20T18:05:19.181Z,71.68
2023-04-20T18:06:19.195Z,72.16
2023-04-20T18:07:19.212Z,72.02
2023-04-20T18:08:19.202Z,72.41
2023-04-20T18:09:19.196Z,72.69
2023-04-20T18:10:19.186Z,72.88
2023-04-20T18:11:19.177Z,72.69
2023-04-20T18:12:19.175Z,73.46
2023-04-20T18:13:19.186Z,73.27
2023-04-20T18:14:19.469Z,73.65
2023-04-20T18:15:19.192Z,73.94
2023-04-20T18:16:19.297Z,74.32
2023-04-20T18:17:19.305Z,74.22
2023-04-20T18:18:19.166Z,73.99
2023-04-20T18:19:19.187Z,74.13
2023-04-20T18:20:19.281Z,74.57
2023-04-20T18:21:19.163Z,74.09
2023-04-20T18:22:19.183Z,74.09
2023-04-20T18:23:19.151Z,74.85
2023-04-20T18:24:19.409Z,74.85
2023-04-20T18:25:19.159Z,74.57
2023-04-20T18:26:19.155Z,75.24
2023-04-20T18:27:19.166Z,75.14
2023-04-20T18:28:19.149Z,75.14
2023-04-20T18:29:19.163Z,75.05
2023-04-20T18:30:19.158Z,75.52
2023-04-20T18:31:19.192Z,75.34
2023-04-20T18:32:19.158Z,75.71
2023-04-20T18:33:19.141Z,75.71
2023-04-20T18:34:19.408Z,75.81
2023-04-20T18:35:19.145Z,75.62
2023-04-20T18:36:19.123Z,76.29
2023-04-20T18:37:19.155Z,76.10
2023-04-20T18:38:19.117Z,76.10
2023-04-20T18:39:19.116Z,76.20
2023-04-20T18:40:19.116Z,76.00
2023-04-20T18:41:19.131Z,76.57
2023-04-20T18:42:19.158Z,76.39
2023-04-20T18:43:19.132Z,76.29
2023-04-20T18:44:19.658Z,76.86
2023-04-20T18:45:19.130Z,76.77
2023-04-20T18:46:19.120Z,76.96
2023-04-20T18:47:19.135Z,76.67
2023-04-20T18:48:19.094Z,76.77
2023-04-20T18:49:19.096Z,77.06
2023-04-20T18:50:19.096Z,76.86
2023-04-20T18:51:19.112Z,77.06
2023-04-20T18:52:19.130Z,77.25
2023-04-20T18:53:19.112Z,77.06
2023-04-20T18:54:19.442Z,76.96
2023-04-20T18:55:19.127Z,77.44
2023-04-20T18:56:19.072Z,77.44
2023-04-20T18:57:19.091Z,77.63
2023-04-20T18:58:19.068Z,77.72
2023-04-20T18:59:19.076Z,77.72
2023-04-20T19:00:19.071Z,77.63
2023-04-20T19:01:19.154Z,77.82